sensor_id;sensor_type;location;lat;lon;timestamp;P1;durP1;ratioP1;P2;durP2;ratioP2
16468;SDS011;8345;50.902;6.956;2022-09-21T00:01:17;3.33;;;2.90;;
16468;SDS011;8345;50.902;6.956;2022-09-21T00:03:44;4.47;;;2.30;;
16468;SDS011;8345;50.902;6.956;2022-09-21T00:06:12;7.17;;;3.00;;
16468;SDS011;8345;50.902;6.956;2022-09-21T00:08:40;6.20;;;3.20;;
16468;SDS011;8345;50.902;6.956;2022-09-21T00:11:10;5.07;;;3.43;;
16468;SDS011;8345;50.902;6.956;2022-09-21T00:13:39;5.53;;;3.57;;
16468;SDS011;8345;50.902;6.956;2022-09-21T00:16:08;3.73;;;3.10;;
16468;SDS011;8345;50.902;6.956;2022-09-21T00:18:36;5.43;;;3.37;;
16468;SDS011;8345;50.902;6.956;2022-09-21T00:21:05;5.97;;;3.17;;
16468;SDS011;8345;50.902;6.956;2022-09-21T00:23:33;3.87;;;3.00;;
16468;SDS011;8345;50.902;6.956;2022-09-21T00:26:04;4.43;;;3.27;;
16468;SDS011;8345;50.902;6.956;2022-09-21T00:28:32;4.57;;;2.67;;
16468;SDS011;8345;50.902;6.956;2022-09-21T00:31:04;5.47;;;2.93;;
16468;SDS011;8345;50.902;6.956;2022-09-21T00:33:32;4.67;;;3.17;;
16468;SDS011;8345;50.902;6.956;2022-09-21T00:36:02;6.77;;;3.93;;
16468;SDS011;8345;50.902;6.956;2022-09-21T00:38:30;4.63;;;3.23;;
16468;SDS011;8345;50.902;6.956;2022-09-21T00:40:57;5.37;;;3.20;;
16468;SDS011;8345;50.902;6.956;2022-09-21T00:43:25;5.90;;;3.50;;
16468;SDS011;8345;50.902;6.956;2022-09-21T00:45:53;5.57;;;4.10;;
16468;SDS011;8345;50.902;6.956;2022-09-21T00:48:23;5.53;;;3.70;;
16468;SDS011;8345;50.902;6.956;2022-09-21T00:50:51;6.17;;;3.70;;
16468;SDS011;8345;50.902;6.956;2022-09-21T00:53:21;5.63;;;3.53;;
16468;SDS011;8345;50.902;6.956;2022-09-21T00:55:48;5.10;;;3.60;;
16468;SDS011;8345;50.902;6.956;2022-09-21T00:58:21;5.47;;;3.97;;
16468;SDS011;8345;50.902;6.956;2022-09-21T01:00:50;6.47;;;4.37;;
16468;SDS011;8345;50.902;6.956;2022-09-21T01:03:17;5.67;;;3.87;;
16468;SDS011;8345;50.902;6.956;2022-09-21T01:05:46;4.60;;;3.73;;
16468;SDS011;8345;50.902;6.956;2022-09-21T01:08:13;7.30;;;3.60;;
16468;SDS011;8345;50.902;6.956;2022-09-21T01:10:45;4.73;;;3.33;;
16468;SDS011;8345;50.902;6.956;2022-09-21T01:13:17;8.17;;;3.33;;
16468;SDS011;8345;50.902;6.956;2022-09-21T01:15:48;6.43;;;3.40;;
16468;SDS011;8345;50.902;6.956;2022-09-21T01:18:17;5.50;;;3.30;;
16468;SDS011;8345;50.902;6.956;2022-09-21T01:21:07;3.77;;;2.83;;
16468;SDS011;8345;50.902;6.956;2022-09-21T01:23:41;8.77;;;3.40;;
16468;SDS011;8345;50.902;6.956;2022-09-21T01:26:12;5.83;;;3.30;;
16468;SDS011;8345;50.902;6.956;2022-09-21T01:28:59;8.80;;;3.20;;
16468;SDS011;8345;50.902;6.956;2022-09-21T01:31:30;5.20;;;2.67;;
16468;SDS011;8345;50.902;6.956;2022-09-21T01:34:00;5.63;;;3.33;;
16468;SDS011;8345;50.902;6.956;2022-09-21T01:36:32;7.90;;;2.77;;
16468;SDS011;8345;50.902;6.956;2022-09-21T01:39:01;5.40;;;3.17;;
16468;SDS011;8345;50.902;6.956;2022-09-21T01:41:29;4.53;;;3.17;;
16468;SDS011;8345;50.902;6.956;2022-09-21T01:43:59;4.50;;;2.83;;
16468;SDS011;8345;50.902;6.956;2022-09-21T01:46:32;5.03;;;2.53;;
16468;SDS011;8345;50.902;6.956;2022-09-21T01:49:00;7.00;;;3.03;;
16468;SDS011;8345;50.902;6.956;2022-09-21T01:51:30;7.70;;;3.40;;
16468;SDS011;8345;50.902;6.956;2022-09-21T01:54:00;5.83;;;3.40;;
16468;SDS011;8345;50.902;6.956;2022-09-21T01:56:29;6.87;;;3.70;;
16468;SDS011;8345;50.902;6.956;2022-09-21T01:59:00;6.97;;;3.10;;
16468;SDS011;8345;50.902;6.956;2022-09-21T02:01:29;4.23;;;2.90;;
16468;SDS011;8345;50.902;6.956;2022-09-21T02:04:00;4.17;;;3.03;;
16468;SDS011;8345;50.902;6.956;2022-09-21T02:06:29;3.93;;;2.80;;
16468;SDS011;8345;50.902;6.956;2022-09-21T02:08:56;3.77;;;2.77;;
16468;SDS011;8345;50.902;6.956;2022-09-21T02:11:23;6.60;;;3.53;;
16468;SDS011;8345;50.902;6.956;2022-09-21T02:13:51;5.97;;;3.30;;
16468;SDS011;8345;50.902;6.956;2022-09-21T02:16:28;7.33;;;2.70;;
16468;SDS011;8345;50.902;6.956;2022-09-21T02:19:00;4.80;;;3.20;;
16468;SDS011;8345;50.902;6.956;2022-09-21T02:21:37;6.73;;;3.20;;
16468;SDS011;8345;50.902;6.956;2022-09-21T02:24:07;5.70;;;3.43;;
16468;SDS011;8345;50.902;6.956;2022-09-21T02:26:37;5.90;;;2.90;;
16468;SDS011;8345;50.902;6.956;2022-09-21T02:29:06;6.47;;;3.27;;
16468;SDS011;8345;50.902;6.956;2022-09-21T02:31:38;8.27;;;3.57;;
16468;SDS011;8345;50.902;6.956;2022-09-21T02:34:09;6.23;;;3.40;;
16468;SDS011;8345;50.902;6.956;2022-09-21T02:36:37;5.87;;;3.80;;
16468;SDS011;8345;50.902;6.956;2022-09-21T02:39:09;5.60;;;3.20;;
16468;SDS011;8345;50.902;6.956;2022-09-21T02:41:39;7.10;;;3.40;;
16468;SDS011;8345;50.902;6.956;2022-09-21T02:44:10;5.00;;;3.20;;
16468;SDS011;8345;50.902;6.956;2022-09-21T02:46:40;6.80;;;3.60;;
16468;SDS011;8345;50.902;6.956;2022-09-21T02:49:11;4.73;;;3.30;;
16468;SDS011;8345;50.902;6.956;2022-09-21T02:51:39;5.20;;;3.37;;
16468;SDS011;8345;50.902;6.956;2022-09-21T02:54:09;5.17;;;3.10;;
16468;SDS011;8345;50.902;6.956;2022-09-21T02:56:37;4.97;;;3.37;;
16468;SDS011;8345;50.902;6.956;2022-09-21T02:59:05;4.73;;;3.40;;
16468;SDS011;8345;50.902;6.956;2022-09-21T03:01:32;6.53;;;4.00;;
16468;SDS011;8345;50.902;6.956;2022-09-21T03:04:02;5.77;;;4.10;;
16468;SDS011;8345;50.902;6.956;2022-09-21T03:06:29;8.57;;;4.33;;
16468;SDS011;8345;50.902;6.956;2022-09-21T03:08:57;5.07;;;4.10;;
16468;SDS011;8345;50.902;6.956;2022-09-21T03:11:24;7.63;;;4.53;;
16468;SDS011;8345;50.902;6.956;2022-09-21T03:13:51;6.03;;;4.60;;
16468;SDS011;8345;50.902;6.956;2022-09-21T03:16:18;5.67;;;4.43;;
16468;SDS011;8345;50.902;6.956;2022-09-21T03:18:47;5.93;;;4.83;;
16468;SDS011;8345;50.902;6.956;2022-09-21T03:21:15;6.60;;;4.70;;
16468;SDS011;8345;50.902;6.956;2022-09-21T03:23:42;5.33;;;4.83;;
16468;SDS011;8345;50.902;6.956;2022-09-21T03:26:09;5.30;;;4.80;;
16468;SDS011;8345;50.902;6.956;2022-09-21T03:28:37;5.50;;;4.47;;
16468;SDS011;8345;50.902;6.956;2022-09-21T03:31:04;7.13;;;5.00;;
16468;SDS011;8345;50.902;6.956;2022-09-21T03:33:31;5.47;;;4.37;;
16468;SDS011;8345;50.902;6.956;2022-09-21T03:35:58;5.03;;;4.30;;
16468;SDS011;8345;50.902;6.956;2022-09-21T03:38:27;6.70;;;4.70;;
16468;SDS011;8345;50.902;6.956;2022-09-21T03:40:54;6.40;;;5.00;;
16468;SDS011;8345;50.902;6.956;2022-09-21T03:43:21;7.60;;;4.40;;
16468;SDS011;8345;50.902;6.956;2022-09-21T03:45:49;6.00;;;4.47;;
16468;SDS011;8345;50.902;6.956;2022-09-21T03:48:16;6.63;;;4.33;;
16468;SDS011;8345;50.902;6.956;2022-09-21T03:50:43;5.33;;;4.70;;
16468;SDS011;8345;50.902;6.956;2022-09-21T03:53:10;7.20;;;4.47;;
16468;SDS011;8345;50.902;6.956;2022-09-21T03:55:39;8.03;;;5.33;;
16468;SDS011;8345;50.902;6.956;2022-09-21T03:58:06;5.27;;;4.77;;
16468;SDS011;8345;50.902;6.956;2022-09-21T04:00:34;8.53;;;5.17;;
16468;SDS011;8345;50.902;6.956;2022-09-21T04:03:02;5.23;;;4.60;;
16468;SDS011;8345;50.902;6.956;2022-09-21T04:05:29;6.17;;;4.67;;
16468;SDS011;8345;50.902;6.956;2022-09-21T04:07:56;7.93;;;5.30;;
16468;SDS011;8345;50.902;6.956;2022-09-21T04:10:26;8.67;;;5.20;;
16468;SDS011;8345;50.902;6.956;2022-09-21T04:12:59;5.73;;;5.23;;
16468;SDS011;8345;50.902;6.956;2022-09-21T04:15:28;5.67;;;5.17;;
16468;SDS011;8345;50.902;6.956;2022-09-21T04:17:55;5.80;;;5.20;;
16468;SDS011;8345;50.902;6.956;2022-09-21T04:20:23;6.10;;;5.00;;
16468;SDS011;8345;50.902;6.956;2022-09-21T04:22:50;7.20;;;4.97;;
16468;SDS011;8345;50.902;6.956;2022-09-21T04:25:18;5.73;;;5.17;;
16468;SDS011;8345;50.902;6.956;2022-09-21T04:27:45;6.63;;;4.90;;
16468;SDS011;8345;50.902;6.956;2022-09-21T04:30:14;5.47;;;4.97;;
16468;SDS011;8345;50.902;6.956;2022-09-21T04:32:42;7.47;;;5.63;;
16468;SDS011;8345;50.902;6.956;2022-09-21T04:35:10;7.07;;;5.77;;
16468;SDS011;8345;50.902;6.956;2022-09-21T04:37:37;10.13;;;6.10;;
16468;SDS011;8345;50.902;6.956;2022-09-21T04:40:05;6.57;;;5.37;;
16468;SDS011;8345;50.902;6.956;2022-09-21T04:42:33;7.10;;;6.50;;
16468;SDS011;8345;50.902;6.956;2022-09-21T04:45:00;8.53;;;6.73;;
16468;SDS011;8345;50.902;6.956;2022-09-21T04:47:29;7.50;;;6.40;;
16468;SDS011;8345;50.902;6.956;2022-09-21T04:49:56;7.27;;;6.57;;
16468;SDS011;8345;50.902;6.956;2022-09-21T04:52:24;7.87;;;7.10;;
16468;SDS011;8345;50.902;6.956;2022-09-21T04:54:51;7.33;;;6.60;;
16468;SDS011;8345;50.902;6.956;2022-09-21T04:57:18;9.07;;;6.67;;
16468;SDS011;8345;50.902;6.956;2022-09-21T04:59:45;9.10;;;7.83;;
16468;SDS011;8345;50.902;6.956;2022-09-21T05:02:12;7.20;;;6.50;;
16468;SDS011;8345;50.902;6.956;2022-09-21T05:04:41;7.90;;;6.40;;
16468;SDS011;8345;50.902;6.956;2022-09-21T05:07:08;9.00;;;7.00;;
16468;SDS011;8345;50.902;6.956;2022-09-21T05:09:35;8.30;;;6.73;;
16468;SDS011;8345;50.902;6.956;2022-09-21T05:12:20;7.63;;;6.83;;
16468;SDS011;8345;50.902;6.956;2022-09-21T05:14:47;7.63;;;6.83;;
16468;SDS011;8345;50.902;6.956;2022-09-21T05:17:14;7.87;;;7.17;;
16468;SDS011;8345;50.902;6.956;2022-09-21T05:19:43;9.10;;;6.93;;
16468;SDS011;8345;50.902;6.956;2022-09-21T05:22:10;7.90;;;6.63;;
16468;SDS011;8345;50.902;6.956;2022-09-21T05:24:37;7.07;;;6.40;;
16468;SDS011;8345;50.902;6.956;2022-09-21T05:27:04;8.00;;;7.20;;
16468;SDS011;8345;50.902;6.956;2022-09-21T05:29:32;9.23;;;6.87;;
16468;SDS011;8345;50.902;6.956;2022-09-21T05:32:00;7.33;;;6.63;;
16468;SDS011;8345;50.902;6.956;2022-09-21T05:34:32;7.67;;;6.93;;
16468;SDS011;8345;50.902;6.956;2022-09-21T05:37:05;8.03;;;6.70;;
16468;SDS011;8345;50.902;6.956;2022-09-21T05:39:34;6.83;;;6.23;;
16468;SDS011;8345;50.902;6.956;2022-09-21T05:42:01;8.00;;;6.90;;
16468;SDS011;8345;50.902;6.956;2022-09-21T05:44:29;7.77;;;6.97;;
16468;SDS011;8345;50.902;6.956;2022-09-21T05:46:57;9.33;;;8.00;;
16468;SDS011;8345;50.902;6.956;2022-09-21T05:49:28;8.30;;;7.27;;
16468;SDS011;8345;50.902;6.956;2022-09-21T05:52:01;8.10;;;7.30;;
16468;SDS011;8345;50.902;6.956;2022-09-21T05:54:37;8.67;;;6.80;;
16468;SDS011;8345;50.902;6.956;2022-09-21T05:57:10;7.23;;;6.53;;
16468;SDS011;8345;50.902;6.956;2022-09-21T05:59:45;7.80;;;6.90;;
16468;SDS011;8345;50.902;6.956;2022-09-21T06:02:17;7.60;;;6.90;;
16468;SDS011;8345;50.902;6.956;2022-09-21T06:04:45;8.40;;;7.60;;
16468;SDS011;8345;50.902;6.956;2022-09-21T06:07:13;7.40;;;6.70;;
16468;SDS011;8345;50.902;6.956;2022-09-21T06:09:42;7.50;;;6.80;;
16468;SDS011;8345;50.902;6.956;2022-09-21T06:12:09;8.00;;;6.57;;
16468;SDS011;8345;50.902;6.956;2022-09-21T06:14:36;8.20;;;6.53;;
16468;SDS011;8345;50.902;6.956;2022-09-21T06:17:04;8.33;;;7.53;;
16468;SDS011;8345;50.902;6.956;2022-09-21T06:19:31;8.57;;;7.53;;
16468;SDS011;8345;50.902;6.956;2022-09-21T06:21:58;9.73;;;7.47;;
16468;SDS011;8345;50.902;6.956;2022-09-21T06:24:25;8.83;;;7.77;;
16468;SDS011;8345;50.902;6.956;2022-09-21T06:26:54;8.33;;;7.53;;
16468;SDS011;8345;50.902;6.956;2022-09-21T06:29:21;7.97;;;7.17;;
16468;SDS011;8345;50.902;6.956;2022-09-21T06:31:48;8.50;;;7.70;;
16468;SDS011;8345;50.902;6.956;2022-09-21T06:34:16;9.23;;;6.83;;
16468;SDS011;8345;50.902;6.956;2022-09-21T06:36:43;7.87;;;7.17;;
16468;SDS011;8345;50.902;6.956;2022-09-21T06:39:10;9.37;;;7.17;;
16468;SDS011;8345;50.902;6.956;2022-09-21T06:41:37;8.00;;;7.30;;
16468;SDS011;8345;50.902;6.956;2022-09-21T06:44:06;8.57;;;7.77;;
16468;SDS011;8345;50.902;6.956;2022-09-21T06:46:33;10.87;;;7.90;;
16468;SDS011;8345;50.902;6.956;2022-09-21T06:49:00;9.97;;;7.40;;
16468;SDS011;8345;50.902;6.956;2022-09-21T06:51:28;8.70;;;7.90;;
16468;SDS011;8345;50.902;6.956;2022-09-21T06:53:55;8.70;;;7.80;;
16468;SDS011;8345;50.902;6.956;2022-09-21T06:56:22;8.13;;;7.33;;
16468;SDS011;8345;50.902;6.956;2022-09-21T06:58:50;9.00;;;7.90;;
16468;SDS011;8345;50.902;6.956;2022-09-21T07:01:18;10.83;;;8.47;;
16468;SDS011;8345;50.902;6.956;2022-09-21T07:03:48;9.07;;;8.17;;
16468;SDS011;8345;50.902;6.956;2022-09-21T07:06:16;9.80;;;8.80;;
16468;SDS011;8345;50.902;6.956;2022-09-21T07:08:44;11.73;;;9.30;;
16468;SDS011;8345;50.902;6.956;2022-09-21T07:11:11;11.23;;;10.03;;
16468;SDS011;8345;50.902;6.956;2022-09-21T07:13:39;11.93;;;10.47;;
16468;SDS011;8345;50.902;6.956;2022-09-21T07:16:06;13.07;;;11.37;;
16468;SDS011;8345;50.902;6.956;2022-09-21T07:18:35;13.80;;;11.27;;
16468;SDS011;8345;50.902;6.956;2022-09-21T07:21:04;14.70;;;12.23;;
16468;SDS011;8345;50.902;6.956;2022-09-21T07:23:31;13.13;;;11.70;;
16468;SDS011;8345;50.902;6.956;2022-09-21T07:26:00;13.37;;;11.97;;
16468;SDS011;8345;50.902;6.956;2022-09-21T07:28:27;15.33;;;12.53;;
16468;SDS011;8345;50.902;6.956;2022-09-21T07:30:54;13.23;;;11.73;;
16468;SDS011;8345;50.902;6.956;2022-09-21T07:33:22;16.10;;;13.13;;
16468;SDS011;8345;50.902;6.956;2022-09-21T07:35:51;14.33;;;12.27;;
16468;SDS011;8345;50.902;6.956;2022-09-21T07:38:20;13.93;;;12.53;;
16468;SDS011;8345;50.902;6.956;2022-09-21T07:40:47;13.93;;;12.53;;
16468;SDS011;8345;50.902;6.956;2022-09-21T07:43:15;15.73;;;14.10;;
16468;SDS011;8345;50.902;6.956;2022-09-21T07:45:42;15.53;;;13.87;;
16468;SDS011;8345;50.902;6.956;2022-09-21T07:48:09;15.17;;;13.30;;
16468;SDS011;8345;50.902;6.956;2022-09-21T07:50:36;15.60;;;14.00;;
16468;SDS011;8345;50.902;6.956;2022-09-21T07:53:05;14.70;;;13.30;;
16468;SDS011;8345;50.902;6.956;2022-09-21T07:55:32;15.93;;;14.00;;
16468;SDS011;8345;50.902;6.956;2022-09-21T07:57:59;16.07;;;14.37;;
16468;SDS011;8345;50.902;6.956;2022-09-21T08:00:44;17.37;;;14.03;;
16468;SDS011;8345;50.902;6.956;2022-09-21T08:03:11;16.30;;;14.60;;
16468;SDS011;8345;50.902;6.956;2022-09-21T08:05:38;15.20;;;13.67;;
16468;SDS011;8345;50.902;6.956;2022-09-21T08:08:07;15.90;;;14.30;;
16468;SDS011;8345;50.902;6.956;2022-09-21T08:10:34;15.77;;;13.73;;
16468;SDS011;8345;50.902;6.956;2022-09-21T08:13:03;14.83;;;13.30;;
16468;SDS011;8345;50.902;6.956;2022-09-21T08:15:30;15.30;;;13.87;;
16468;SDS011;8345;50.902;6.956;2022-09-21T08:17:58;14.93;;;13.40;;
16468;SDS011;8345;50.902;6.956;2022-09-21T08:20:26;14.83;;;13.43;;
16468;SDS011;8345;50.902;6.956;2022-09-21T08:22:54;16.47;;;14.10;;
16468;SDS011;8345;50.902;6.956;2022-09-21T08:25:23;17.53;;;14.70;;
16468;SDS011;8345;50.902;6.956;2022-09-21T08:27:51;16.47;;;14.77;;
16468;SDS011;8345;50.902;6.956;2022-09-21T08:30:22;16.47;;;14.87;;
16468;SDS011;8345;50.902;6.956;2022-09-21T08:32:52;16.93;;;15.27;;
16468;SDS011;8345;50.902;6.956;2022-09-21T08:35:20;16.57;;;14.87;;
16468;SDS011;8345;50.902;6.956;2022-09-21T08:37:47;17.63;;;15.87;;
16468;SDS011;8345;50.902;6.956;2022-09-21T08:40:15;17.60;;;15.80;;
16468;SDS011;8345;50.902;6.956;2022-09-21T08:42:46;17.07;;;15.43;;
16468;SDS011;8345;50.902;6.956;2022-09-21T08:45:18;17.53;;;15.73;;
16468;SDS011;8345;50.902;6.956;2022-09-21T08:47:47;17.23;;;15.43;;
16468;SDS011;8345;50.902;6.956;2022-09-21T08:50:23;16.40;;;14.80;;
16468;SDS011;8345;50.902;6.956;2022-09-21T08:52:53;17.57;;;15.50;;
16468;SDS011;8345;50.902;6.956;2022-09-21T08:55:23;16.47;;;14.90;;
16468;SDS011;8345;50.902;6.956;2022-09-21T08:57:52;17.00;;;15.20;;
16468;SDS011;8345;50.902;6.956;2022-09-21T09:00:19;17.17;;;15.57;;
16468;SDS011;8345;50.902;6.956;2022-09-21T09:03:02;16.93;;;15.20;;
16468;SDS011;8345;50.902;6.956;2022-09-21T09:05:37;16.77;;;15.07;;
16468;SDS011;8345;50.902;6.956;2022-09-21T09:10:55;15.83;;;14.43;;
16468;SDS011;8345;50.902;6.956;2022-09-21T09:13:28;15.93;;;14.50;;
16468;SDS011;8345;50.902;6.956;2022-09-21T09:16:02;16.77;;;15.17;;
16468;SDS011;8345;50.902;6.956;2022-09-21T09:18:32;16.57;;;15.07;;
16468;SDS011;8345;50.902;6.956;2022-09-21T09:21:03;16.47;;;14.77;;
16468;SDS011;8345;50.902;6.956;2022-09-21T09:23:32;16.40;;;14.67;;
16468;SDS011;8345;50.902;6.956;2022-09-21T09:26:02;16.47;;;14.87;;
16468;SDS011;8345;50.902;6.956;2022-09-21T09:28:32;17.03;;;15.17;;
16468;SDS011;8345;50.902;6.956;2022-09-21T09:31:03;15.97;;;14.47;;
16468;SDS011;8345;50.902;6.956;2022-09-21T09:33:37;14.80;;;13.20;;
16468;SDS011;8345;50.902;6.956;2022-09-21T09:36:10;14.63;;;13.13;;
16468;SDS011;8345;50.902;6.956;2022-09-21T09:38:38;15.73;;;13.37;;
16468;SDS011;8345;50.902;6.956;2022-09-21T09:41:16;14.90;;;12.43;;
16468;SDS011;8345;50.902;6.956;2022-09-21T09:43:50;14.10;;;12.00;;
16468;SDS011;8345;50.902;6.956;2022-09-21T09:46:21;11.37;;;10.23;;
16468;SDS011;8345;50.902;6.956;2022-09-21T09:49:05;10.63;;;9.53;;
16468;SDS011;8345;50.902;6.956;2022-09-21T09:51:37;11.07;;;9.50;;
16468;SDS011;8345;50.902;6.956;2022-09-21T09:54:05;10.70;;;9.37;;
16468;SDS011;8345;50.902;6.956;2022-09-21T09:56:38;9.73;;;8.03;;
16468;SDS011;8345;50.902;6.956;2022-09-21T09:59:09;8.17;;;7.30;;
16468;SDS011;8345;50.902;6.956;2022-09-21T10:01:38;9.37;;;8.03;;
16468;SDS011;8345;50.902;6.956;2022-09-21T10:04:07;9.93;;;6.97;;
16468;SDS011;8345;50.902;6.956;2022-09-21T10:06:35;11.17;;;8.13;;
16468;SDS011;8345;50.902;6.956;2022-09-21T10:09:16;8.10;;;7.23;;
16468;SDS011;8345;50.902;6.956;2022-09-21T10:11:43;8.97;;;8.10;;
16468;SDS011;8345;50.902;6.956;2022-09-21T10:14:13;7.57;;;6.27;;
16468;SDS011;8345;50.902;6.956;2022-09-21T10:16:43;6.90;;;6.20;;
16468;SDS011;8345;50.902;6.956;2022-09-21T10:19:13;7.17;;;5.33;;
16468;SDS011;8345;50.902;6.956;2022-09-21T10:21:41;7.00;;;5.90;;
16468;SDS011;8345;50.902;6.956;2022-09-21T10:24:15;4.13;;;3.70;;
16468;SDS011;8345;50.902;6.956;2022-09-21T10:26:45;6.57;;;4.17;;
16468;SDS011;8345;50.902;6.956;2022-09-21T10:29:18;5.93;;;4.13;;
16468;SDS011;8345;50.902;6.956;2022-09-21T10:31:53;5.77;;;3.40;;
16468;SDS011;8345;50.902;6.956;2022-09-21T10:34:21;4.57;;;2.77;;
16468;SDS011;8345;50.902;6.956;2022-09-21T10:36:49;3.07;;;2.73;;
16468;SDS011;8345;50.902;6.956;2022-09-21T10:39:17;3.23;;;2.77;;
16468;SDS011;8345;50.902;6.956;2022-09-21T10:41:48;3.63;;;2.77;;
16468;SDS011;8345;50.902;6.956;2022-09-21T10:44:18;4.00;;;2.13;;
16468;SDS011;8345;50.902;6.956;2022-09-21T10:46:46;3.93;;;2.40;;
16468;SDS011;8345;50.902;6.956;2022-09-21T10:49:14;2.40;;;2.07;;
16468;SDS011;8345;50.902;6.956;2022-09-21T10:51:43;2.70;;;1.80;;
16468;SDS011;8345;50.902;6.956;2022-09-21T10:54:13;5.00;;;2.13;;
16468;SDS011;8345;50.902;6.956;2022-09-21T10:56:48;2.60;;;2.00;;
16468;SDS011;8345;50.902;6.956;2022-09-21T10:59:21;5.17;;;1.80;;
16468;SDS011;8345;50.902;6.956;2022-09-21T11:01:49;4.93;;;2.07;;
16468;SDS011;8345;50.902;6.956;2022-09-21T11:04:18;3.73;;;2.37;;
16468;SDS011;8345;50.902;6.956;2022-09-21T11:06:47;4.50;;;2.00;;
16468;SDS011;8345;50.902;6.956;2022-09-21T11:09:17;4.47;;;2.30;;
16468;SDS011;8345;50.902;6.956;2022-09-21T11:11:49;4.30;;;2.53;;
16468;SDS011;8345;50.902;6.956;2022-09-21T11:14:19;3.30;;;1.90;;
16468;SDS011;8345;50.902;6.956;2022-09-21T11:16:53;3.00;;;1.90;;
16468;SDS011;8345;50.902;6.956;2022-09-21T11:19:24;7.37;;;3.27;;
16468;SDS011;8345;50.902;6.956;2022-09-21T11:21:54;5.80;;;2.80;;
16468;SDS011;8345;50.902;6.956;2022-09-21T11:24:25;3.23;;;2.00;;
16468;SDS011;8345;50.902;6.956;2022-09-21T11:26:55;4.73;;;2.30;;
16468;SDS011;8345;50.902;6.956;2022-09-21T11:29:29;3.60;;;2.20;;
16468;SDS011;8345;50.902;6.956;2022-09-21T11:32:08;4.93;;;2.20;;
16468;SDS011;8345;50.902;6.956;2022-09-21T11:34:43;4.03;;;2.43;;
16468;SDS011;8345;50.902;6.956;2022-09-21T11:37:17;3.93;;;2.80;;
16468;SDS011;8345;50.902;6.956;2022-09-21T11:39:52;2.53;;;2.10;;
16468;SDS011;8345;50.902;6.956;2022-09-21T11:45:09;6.23;;;2.30;;
16468;SDS011;8345;50.902;6.956;2022-09-21T11:47:44;2.90;;;1.90;;
16468;SDS011;8345;50.902;6.956;2022-09-21T11:50:25;5.70;;;2.13;;
16468;SDS011;8345;50.902;6.956;2022-09-21T11:52:56;3.67;;;2.00;;
16468;SDS011;8345;50.902;6.956;2022-09-21T11:55:31;3.43;;;2.03;;
16468;SDS011;8345;50.902;6.956;2022-09-21T11:58:03;4.83;;;1.90;;
16468;SDS011;8345;50.902;6.956;2022-09-21T12:00:38;4.27;;;1.90;;
16468;SDS011;8345;50.902;6.956;2022-09-21T12:03:20;3.50;;;1.40;;
16468;SDS011;8345;50.902;6.956;2022-09-21T12:06:01;2.97;;;1.80;;
16468;SDS011;8345;50.902;6.956;2022-09-21T12:08:34;8.57;;;2.13;;
16468;SDS011;8345;50.902;6.956;2022-09-21T12:11:06;4.30;;;2.20;;
16468;SDS011;8345;50.902;6.956;2022-09-21T12:13:39;4.10;;;2.00;;
16468;SDS011;8345;50.902;6.956;2022-09-21T12:16:09;2.23;;;1.47;;
16468;SDS011;8345;50.902;6.956;2022-09-21T12:18:40;3.37;;;1.80;;
16468;SDS011;8345;50.902;6.956;2022-09-21T12:21:12;4.37;;;1.60;;
16468;SDS011;8345;50.902;6.956;2022-09-21T12:23:41;1.47;;;1.20;;
16468;SDS011;8345;50.902;6.956;2022-09-21T12:26:09;3.17;;;1.63;;
16468;SDS011;8345;50.902;6.956;2022-09-21T12:28:40;2.70;;;1.47;;
16468;SDS011;8345;50.902;6.956;2022-09-21T12:31:10;2.17;;;1.63;;
16468;SDS011;8345;50.902;6.956;2022-09-21T12:33:40;2.97;;;1.30;;
16468;SDS011;8345;50.902;6.956;2022-09-21T12:36:11;2.10;;;1.50;;
16468;SDS011;8345;50.902;6.956;2022-09-21T12:38:41;2.53;;;1.27;;
16468;SDS011;8345;50.902;6.956;2022-09-21T12:41:13;2.47;;;1.57;;
16468;SDS011;8345;50.902;6.956;2022-09-21T12:43:42;2.03;;;1.50;;
16468;SDS011;8345;50.902;6.956;2022-09-21T12:46:11;2.90;;;1.10;;
16468;SDS011;8345;50.902;6.956;2022-09-21T12:48:41;4.90;;;1.60;;
16468;SDS011;8345;50.902;6.956;2022-09-21T12:51:11;3.13;;;1.30;;
16468;SDS011;8345;50.902;6.956;2022-09-21T12:53:41;3.57;;;1.50;;
16468;SDS011;8345;50.902;6.956;2022-09-21T12:56:11;2.67;;;1.33;;
16468;SDS011;8345;50.902;6.956;2022-09-21T12:58:44;2.40;;;1.50;;
16468;SDS011;8345;50.902;6.956;2022-09-21T13:01:21;1.93;;;1.07;;
16468;SDS011;8345;50.902;6.956;2022-09-21T13:03:55;3.60;;;1.20;;
16468;SDS011;8345;50.902;6.956;2022-09-21T13:06:37;2.40;;;1.30;;
16468;SDS011;8345;50.902;6.956;2022-09-21T13:09:08;3.93;;;1.20;;
16468;SDS011;8345;50.902;6.956;2022-09-21T13:11:42;3.17;;;1.50;;
16468;SDS011;8345;50.902;6.956;2022-09-21T13:14:14;2.43;;;1.47;;
16468;SDS011;8345;50.902;6.956;2022-09-21T13:16:41;4.23;;;1.57;;
16468;SDS011;8345;50.902;6.956;2022-09-21T13:19:17;1.30;;;1.00;;
16468;SDS011;8345;50.902;6.956;2022-09-21T13:21:45;2.10;;;1.00;;
16468;SDS011;8345;50.902;6.956;2022-09-21T13:24:28;2.83;;;1.33;;
16468;SDS011;8345;50.902;6.956;2022-09-21T13:26:56;2.07;;;1.00;;
16468;SDS011;8345;50.902;6.956;2022-09-21T13:29:31;1.67;;;1.10;;
16468;SDS011;8345;50.902;6.956;2022-09-21T13:31:59;2.00;;;1.00;;
16468;SDS011;8345;50.902;6.956;2022-09-21T13:34:33;2.83;;;1.00;;
16468;SDS011;8345;50.902;6.956;2022-09-21T13:37:19;1.43;;;0.90;;
16468;SDS011;8345;50.902;6.956;2022-09-21T13:39:50;1.27;;;1.10;;
16468;SDS011;8345;50.902;6.956;2022-09-21T13:48:11;1.47;;;0.97;;
16468;SDS011;8345;50.902;6.956;2022-09-21T13:50:41;3.10;;;1.10;;
16468;SDS011;8345;50.902;6.956;2022-09-21T13:53:16;1.13;;;0.80;;
16468;SDS011;8345;50.902;6.956;2022-09-21T13:55:47;3.07;;;1.40;;
16468;SDS011;8345;50.902;6.956;2022-09-21T13:58:17;1.10;;;0.80;;
16468;SDS011;8345;50.902;6.956;2022-09-21T14:00:49;2.03;;;0.90;;
16468;SDS011;8345;50.902;6.956;2022-09-21T14:03:20;2.50;;;0.90;;
16468;SDS011;8345;50.902;6.956;2022-09-21T14:05:49;2.63;;;0.80;;
16468;SDS011;8345;50.902;6.956;2022-09-21T14:08:22;1.23;;;0.80;;
16468;SDS011;8345;50.902;6.956;2022-09-21T14:10:52;2.10;;;1.27;;
16468;SDS011;8345;50.902;6.956;2022-09-21T14:13:31;0.87;;;0.60;;
16468;SDS011;8345;50.902;6.956;2022-09-21T14:18:50;1.87;;;0.80;;
16468;SDS011;8345;50.902;6.956;2022-09-21T14:21:19;0.90;;;0.70;;
16468;SDS011;8345;50.902;6.956;2022-09-21T14:26:33;1.90;;;0.90;;
16468;SDS011;8345;50.902;6.956;2022-09-21T14:29:04;1.43;;;1.00;;
16468;SDS011;8345;50.902;6.956;2022-09-21T14:31:33;1.83;;;1.33;;
16468;SDS011;8345;50.902;6.956;2022-09-21T14:34:03;1.03;;;0.60;;
16468;SDS011;8345;50.902;6.956;2022-09-21T14:36:38;1.00;;;0.70;;
16468;SDS011;8345;50.902;6.956;2022-09-21T14:39:13;2.17;;;0.90;;
16468;SDS011;8345;50.902;6.956;2022-09-21T14:41:42;1.40;;;0.70;;
16468;SDS011;8345;50.902;6.956;2022-09-21T14:44:13;0.83;;;0.70;;
16468;SDS011;8345;50.902;6.956;2022-09-21T14:46:49;2.63;;;0.70;;
16468;SDS011;8345;50.902;6.956;2022-09-21T14:49:24;2.70;;;0.90;;
16468;SDS011;8345;50.902;6.956;2022-09-21T14:52:11;1.53;;;1.07;;
16468;SDS011;8345;50.902;6.956;2022-09-21T14:54:45;2.90;;;1.30;;
16468;SDS011;8345;50.902;6.956;2022-09-21T14:57:17;4.70;;;1.07;;
16468;SDS011;8345;50.902;6.956;2022-09-21T14:59:49;1.77;;;1.20;;
16468;SDS011;8345;50.902;6.956;2022-09-21T15:02:20;2.87;;;1.10;;
16468;SDS011;8345;50.902;6.956;2022-09-21T15:04:53;1.73;;;1.10;;
16468;SDS011;8345;50.902;6.956;2022-09-21T15:07:27;2.87;;;1.40;;
16468;SDS011;8345;50.902;6.956;2022-09-21T15:10:19;1.60;;;1.20;;
16468;SDS011;8345;50.902;6.956;2022-09-21T15:13:08;1.17;;;1.07;;
16468;SDS011;8345;50.902;6.956;2022-09-21T15:15:38;1.33;;;1.00;;
16468;SDS011;8345;50.902;6.956;2022-09-21T15:18:13;2.33;;;1.07;;
16468;SDS011;8345;50.902;6.956;2022-09-21T15:20:49;2.23;;;1.13;;
16468;SDS011;8345;50.902;6.956;2022-09-21T15:23:27;2.53;;;1.20;;
16468;SDS011;8345;50.902;6.956;2022-09-21T15:25:55;2.10;;;1.13;;
16468;SDS011;8345;50.902;6.956;2022-09-21T15:28:24;3.30;;;1.30;;
16468;SDS011;8345;50.902;6.956;2022-09-21T15:30:51;2.20;;;1.20;;